createdAt,value
2022-12-20T00:02:25.569Z,8.87
2022-12-20T00:07:27.148Z,8.86
2022-12-20T00:12:28.574Z,8.80
2022-12-20T00:17:30.088Z,9.03
2022-12-20T00:22:31.584Z,9.07
2022-12-20T00:27:32.974Z,9.00
2022-12-20T00:32:34.597Z,9.22
2022-12-20T00:37:36.059Z,9.68
2022-12-20T00:42:37.531Z,9.61
2022-12-20T00:47:38.968Z,9.61
2022-12-20T00:52:40.399Z,9.82
2022-12-20T00:57:41.842Z,9.65
2022-12-20T01:02:43.365Z,9.65
2022-12-20T01:07:45.128Z,9.78
2022-12-20T01:12:46.559Z,9.92
2022-12-20T01:17:48.357Z,9.72
2022-12-20T01:22:49.833Z,9.72
2022-12-20T01:27:51.272Z,9.87
2022-12-20T01:32:52.994Z,9.87
2022-12-20T01:37:54.454Z,9.72
2022-12-20T01:42:55.964Z,9.67
2022-12-20T01:48:00.056Z,9.38
2022-12-20T01:53:04.254Z,9.40
2022-12-20T01:58:10.077Z,9.07
2022-12-20T02:03:14.387Z,9.16
2022-12-20T02:08:19.561Z,8.92
2022-12-20T02:13:43.766Z,8.87
2022-12-20T02:18:54.288Z,8.75
2022-12-20T02:24:10.465Z,8.66
2022-12-20T02:29:30.750Z,8.62
2022-12-20T02:34:35.608Z,8.53
2022-12-20T02:39:39.849Z,8.49
2022-12-20T02:45:09.107Z,8.52
2022-12-20T02:50:11.944Z,8.47
2022-12-20T02:55:13.879Z,8.45
2022-12-20T03:00:22.402Z,8.47
2022-12-20T03:05:25.559Z,8.47
2022-12-20T03:10:27.214Z,8.44
2022-12-20T03:15:28.602Z,8.36
2022-12-20T03:20:29.982Z,8.42
2022-12-20T03:25:31.488Z,8.31
2022-12-20T03:30:32.997Z,8.39
2022-12-20T03:35:34.487Z,8.49
2022-12-20T03:40:35.876Z,8.53
2022-12-20T03:45:37.310Z,8.65
2022-12-20T03:50:38.749Z,8.79
2022-12-20T03:55:44.208Z,8.65
2022-12-20T04:00:47.538Z,8.87
2022-12-20T04:05:48.928Z,8.94
2022-12-20T04:11:08.901Z,9.08
2022-12-20T04:16:11.794Z,9.25
2022-12-20T04:21:13.907Z,9.27
2022-12-20T04:26:15.348Z,9.16
2022-12-20T04:31:21.875Z,9.24
2022-12-20T04:36:25.386Z,9.21
2022-12-20T04:41:27.196Z,9.51
2022-12-20T04:46:28.722Z,9.72
2022-12-20T04:51:30.217Z,9.69
2022-12-20T04:56:31.628Z,9.86
2022-12-20T05:01:33.327Z,9.96
2022-12-20T05:06:34.812Z,9.71
2022-12-20T05:11:36.241Z,9.62
2022-12-20T05:16:37.826Z,9.63
2022-12-20T05:21:57.805Z,9.51
2022-12-20T05:26:59.726Z,9.70
2022-12-20T05:32:01.130Z,9.46
2022-12-20T05:37:02.621Z,9.43
2022-12-20T05:42:04.506Z,9.24
2022-12-20T05:47:06.056Z,9.27
2022-12-20T05:52:07.753Z,9.18
2022-12-20T05:57:09.252Z,9.21
2022-12-20T06:02:11.081Z,9.11
2022-12-20T06:07:13.272Z,9.22
2022-12-20T06:12:14.730Z,9.16
2022-12-20T06:17:16.127Z,9.22
2022-12-20T06:22:17.511Z,9.27
2022-12-20T06:27:18.931Z,9.34
2022-12-20T06:32:20.815Z,9.39
2022-12-20T06:37:22.238Z,9.50
2022-12-20T06:42:24.004Z,9.44
2022-12-20T06:47:25.474Z,9.43
2022-12-20T06:52:27.066Z,9.51
2022-12-20T06:57:28.762Z,9.46
2022-12-20T07:02:30.247Z,9.47
2022-12-20T07:07:31.841Z,9.58
2022-12-20T07:12:33.551Z,9.77
2022-12-20T07:17:35.008Z,9.68
2022-12-20T07:22:36.535Z,9.74
2022-12-20T07:27:38.413Z,9.89
2022-12-20T07:32:39.918Z,9.91
2022-12-20T07:37:41.893Z,9.72
2022-12-20T07:42:48.513Z,9.78
2022-12-20T07:47:50.368Z,9.71
2022-12-20T07:52:51.888Z,9.63
2022-12-20T07:58:00.094Z,9.60
2022-12-20T08:03:08.822Z,9.57
2022-12-20T08:08:10.466Z,9.74
2022-12-20T08:13:12.694Z,9.61
2022-12-20T08:18:14.165Z,9.50
2022-12-20T08:23:15.743Z,9.50
2022-12-20T08:28:17.249Z,9.53
2022-12-20T08:33:19.617Z,9.76
2022-12-20T08:38:21.097Z,9.60
2022-12-20T08:43:22.694Z,9.71
2022-12-20T08:48:24.160Z,9.76
2022-12-20T08:53:25.578Z,9.77
2022-12-20T08:58:27.016Z,9.68
2022-12-20T09:03:32.117Z,9.77
2022-12-20T09:08:38.445Z,9.67
2022-12-20T09:13:44.018Z,9.57
2022-12-20T09:18:54.086Z,9.36
2022-12-20T09:23:58.029Z,9.28
2022-12-20T09:28:59.523Z,9.11
2022-12-20T09:34:01.204Z,9.06
2022-12-20T09:39:02.791Z,8.99
2022-12-20T09:44:12.362Z,9.02
2022-12-20T09:49:17.977Z,9.11
2022-12-20T09:54:44.628Z,9.11
2022-12-20T09:59:49.795Z,9.13
2022-12-20T10:04:53.410Z,9.06
2022-12-20T10:10:32.776Z,9.14
2022-12-20T10:15:49.938Z,9.14
2022-12-20T10:21:00.966Z,9.11
2022-12-20T10:26:08.304Z,9.01
2022-12-20T10:31:18.382Z,8.98
2022-12-20T10:36:29.362Z,8.99
2022-12-20T10:41:48.164Z,8.95
2022-12-20T10:46:53.970Z,9.00
2022-12-20T10:51:58.368Z,8.98
2022-12-20T10:57:03.169Z,8.97
2022-12-20T11:02:41.668Z,8.99
2022-12-20T11:13:26.871Z,9.14
2022-12-20T11:18:56.212Z,9.10
2022-12-20T11:24:10.567Z,9.11
2022-12-20T11:29:52.046Z,9.14
2022-12-20T11:35:03.197Z,9.18
2022-12-20T11:40:36.997Z,9.22
2022-12-20T11:46:03.068Z,9.29
2022-12-20T11:51:15.284Z,9.28
2022-12-20T11:56:44.268Z,9.23
2022-12-20T12:02:12.505Z,9.25
2022-12-20T12:07:19.369Z,9.31
2022-12-20T12:12:32.626Z,9.35
2022-12-20T12:17:46.596Z,9.40
2022-12-20T12:22:51.168Z,9.39
2022-12-20T12:27:52.712Z,9.36
2022-12-20T12:33:00.705Z,9.43
2022-12-20T12:38:34.406Z,9.41
2022-12-20T12:43:45.870Z,9.39
2022-12-20T12:49:05.021Z,9.31
2022-12-20T12:54:09.461Z,9.34
2022-12-20T12:59:19.895Z,9.40
2022-12-20T13:04:21.260Z,9.35
2022-12-20T13:09:25.814Z,9.38
2022-12-20T13:14:30.147Z,9.38
2022-12-20T13:19:36.423Z,9.33
2022-12-20T13:24:52.446Z,9.24
2022-12-20T13:30:22.400Z,9.35
2022-12-20T13:35:27.884Z,9.24
2022-12-20T13:40:38.401Z,9.36
2022-12-20T13:45:45.563Z,9.36
2022-12-20T13:50:53.292Z,9.35
2022-12-20T13:55:55.473Z,9.33
2022-12-20T14:01:27.474Z,9.32
2022-12-20T14:06:29.154Z,9.29
2022-12-20T14:11:33.500Z,9.29
2022-12-20T14:16:35.045Z,9.28
2022-12-20T14:21:40.465Z,9.35
2022-12-20T14:26:51.030Z,9.24
2022-12-20T14:31:52.502Z,9.32
2022-12-20T14:37:28.862Z,9.31
2022-12-20T14:42:35.350Z,9.20
2022-12-20T14:47:38.869Z,9.25
2022-12-20T14:52:41.881Z,9.29
2022-12-20T14:57:47.120Z,9.18
2022-12-20T15:03:12.964Z,9.21
2022-12-20T15:08:20.389Z,9.21
2022-12-20T15:13:42.184Z,9.20
2022-12-20T15:18:44.267Z,9.23
2022-12-20T15:23:54.140Z,9.13
2022-12-20T15:28:55.817Z,9.11
2022-12-20T15:34:02.230Z,9.11
2022-12-20T15:39:14.772Z,9.14
2022-12-20T15:44:20.586Z,9.07
2022-12-20T15:49:24.837Z,9.07
2022-12-20T15:54:35.806Z,9.07
2022-12-20T16:04:59.164Z,9.01
2022-12-20T16:10:00.962Z,9.03
2022-12-20T16:15:02.499Z,9.07
2022-12-20T16:20:04.492Z,9.04
2022-12-20T16:25:20.371Z,9.05
2022-12-20T16:30:23.431Z,9.02
2022-12-20T16:35:39.841Z,9.06
2022-12-20T16:40:41.517Z,8.99
2022-12-20T16:45:48.475Z,8.95
2022-12-20T16:50:50.068Z,8.89
2022-12-20T16:55:51.449Z,8.86
2022-12-20T17:00:53.183Z,8.86
2022-12-20T17:05:57.199Z,8.81
2022-12-20T17:10:58.974Z,8.84
2022-12-20T17:16:00.395Z,8.84
2022-12-20T17:21:08.355Z,8.83
2022-12-20T17:26:15.005Z,8.87
2022-12-20T17:31:21.667Z,8.90
2022-12-20T17:36:23.912Z,8.89
2022-12-20T17:41:33.777Z,8.86
2022-12-20T17:46:35.167Z,8.82
2022-12-20T17:51:36.545Z,8.74
2022-12-20T17:56:38.268Z,8.71
2022-12-20T18:01:40.893Z,8.69
2022-12-20T18:06:46.612Z,8.67
2022-12-20T18:11:48.662Z,8.72
2022-12-20T18:16:50.263Z,8.68
2022-12-20T18:21:51.805Z,8.72
2022-12-20T18:26:53.319Z,8.71
2022-12-20T18:31:54.884Z,8.65
2022-12-20T18:36:59.090Z,8.62
2022-12-20T18:42:00.700Z,8.64
2022-12-20T18:47:03.427Z,8.65
2022-12-20T18:52:47.878Z,8.61
2022-12-20T18:57:49.403Z,8.63
2022-12-20T19:02:53.675Z,8.58
2022-12-20T19:07:57.296Z,8.58
2022-12-20T19:13:05.276Z,8.60
2022-12-20T19:18:07.291Z,8.56
2022-12-20T19:23:11.969Z,8.57
2022-12-20T19:28:14.189Z,8.52
2022-12-20T19:33:15.858Z,8.57
2022-12-20T19:38:17.688Z,8.50
2022-12-20T19:43:19.600Z,8.59
2022-12-20T19:48:21.248Z,8.52
2022-12-20T19:53:25.844Z,8.49
2022-12-20T19:58:30.643Z,8.53
2022-12-20T20:03:33.748Z,8.49
2022-12-20T20:08:40.017Z,8.43
2022-12-20T20:13:41.903Z,8.44
2022-12-20T20:18:45.593Z,8.46
2022-12-20T20:23:48.079Z,8.46
2022-12-20T20:28:50.611Z,8.42
2022-12-20T20:33:52.110Z,8.46
2022-12-20T20:38:54.004Z,8.43
2022-12-20T20:43:56.799Z,8.50
2022-12-20T20:48:58.767Z,8.42
2022-12-20T20:54:01.257Z,8.46
2022-12-20T20:59:08.096Z,8.44
2022-12-20T21:04:12.883Z,8.45
2022-12-20T21:09:23.721Z,8.40
2022-12-20T21:14:51.635Z,8.47
2022-12-20T21:19:47.017Z,8.42
2022-12-20T21:24:48.730Z,8.41
2022-12-20T21:29:51.568Z,8.43
2022-12-20T21:34:54.744Z,8.46
2022-12-20T21:40:02.289Z,8.39
2022-12-20T21:45:05.361Z,8.42
2022-12-20T21:50:07.606Z,8.41
2022-12-20T21:55:13.394Z,8.41
2022-12-20T22:00:16.551Z,8.41
2022-12-20T22:05:18.422Z,8.42
2022-12-20T22:10:19.930Z,8.40
2022-12-20T22:15:21.694Z,8.36
2022-12-20T22:20:25.553Z,8.36
2022-12-20T22:25:34.296Z,8.32
2022-12-20T22:30:45.952Z,8.32
2022-12-20T22:35:48.675Z,8.29
2022-12-20T22:41:00.871Z,8.28
2022-12-20T22:51:34.121Z,8.20
2022-12-20T22:56:36.721Z,8.18
2022-12-20T23:01:40.960Z,8.17
2022-12-20T23:06:42.652Z,8.15
2022-12-20T23:12:03.681Z,8.11
2022-12-20T23:17:13.877Z,8.07
2022-12-20T23:22:35.637Z,8.05
2022-12-20T23:27:38.179Z,8.01
2022-12-20T23:32:43.111Z,8.00
2022-12-20T23:37:55.018Z,8.00
2022-12-20T23:42:59.018Z,7.94
2022-12-20T23:48:00.752Z,7.90
2022-12-20T23:53:04.972Z,7.89
2022-12-20T23:58:06.585Z,7.89
